createdAt,value
2024-02-13T00:03:23.444Z,100548.63
2024-02-13T00:08:36.304Z,100554.13
2024-02-13T00:13:47.524Z,100547.97
2024-02-13T00:18:49.598Z,100554.91
2024-02-13T00:23:51.527Z,100558.06
2024-02-13T00:28:53.367Z,100549.19
2024-02-13T00:33:55.891Z,100561.66
2024-02-13T00:38:58.201Z,100566.94
2024-02-13T00:43:59.822Z,100565.06
2024-02-13T00:49:01.815Z,100573.41
2024-02-13T00:54:03.362Z,100581.38
2024-02-13T00:59:05.035Z,100573.72
2024-02-13T01:04:07.648Z,100575.78
2024-02-13T01:09:09.372Z,100583.66
2024-02-13T01:14:11.082Z,100578.91
2024-02-13T01:19:13.948Z,100594.81
2024-02-13T01:24:19.111Z,100610.59
2024-02-13T01:29:21.142Z,100610.03
2024-02-13T01:34:22.916Z,100611.38
2024-02-13T01:39:25.301Z,100620.59
2024-02-13T01:44:29.563Z,100620.47
2024-02-13T01:49:31.356Z,100624.06
2024-02-13T01:54:32.978Z,100620.16
2024-02-13T01:59:39.946Z,100629.00
2024-02-13T02:04:42.291Z,100616.47
2024-02-13T02:09:44.629Z,100634.75
2024-02-13T02:14:46.220Z,100624.72
2024-02-13T02:19:48.016Z,100633.00
2024-02-13T02:24:49.581Z,100624.75
2024-02-13T02:29:51.288Z,100631.28
2024-02-13T02:34:53.120Z,100642.84
2024-02-13T02:39:55.032Z,100640.25
2024-02-13T02:44:56.582Z,100637.25
2024-02-13T02:49:58.104Z,100648.50
2024-02-13T02:54:59.875Z,100653.03
2024-02-13T03:00:08.053Z,100637.81
2024-02-13T03:05:12.529Z,100631.88
2024-02-13T03:10:14.374Z,100644.00
2024-02-13T03:15:15.993Z,100633.81
2024-02-13T03:20:17.784Z,100637.13
2024-02-13T03:25:20.115Z,100639.09
2024-02-13T03:30:21.685Z,100644.47
2024-02-13T03:35:23.294Z,100633.22
2024-02-13T03:40:24.815Z,100636.00
2024-02-13T03:45:26.380Z,100637.91
2024-02-13T03:50:28.092Z,100639.00
2024-02-13T03:55:29.736Z,100644.41
2024-02-13T04:00:31.290Z,100634.81
2024-02-13T04:05:38.567Z,100629.69
2024-02-13T04:10:40.141Z,100629.91
2024-02-13T04:15:44.634Z,100633.09
2024-02-13T04:20:46.364Z,100631.41
2024-02-13T04:25:47.948Z,100630.13
2024-02-13T04:30:49.907Z,100627.84
2024-02-13T04:35:51.631Z,100616.41
2024-02-13T04:40:53.243Z,100625.88
2024-02-13T04:45:54.776Z,100620.88
2024-02-13T04:50:56.367Z,100627.72
2024-02-13T04:55:58.140Z,100639.50
2024-02-13T05:01:10.704Z,100634.91
2024-02-13T05:06:30.911Z,100626.81
2024-02-13T05:11:32.559Z,100627.75
2024-02-13T05:16:35.166Z,100623.69
2024-02-13T05:21:37.245Z,100612.56
2024-02-13T05:26:39.953Z,100626.16
2024-02-13T05:31:42.366Z,100635.31
2024-02-13T05:36:44.868Z,100630.47
2024-02-13T05:41:46.504Z,100626.06
2024-02-13T05:46:48.238Z,100623.28
2024-02-13T05:51:49.837Z,100630.34
2024-02-13T05:56:51.710Z,100638.06
2024-02-13T06:01:54.885Z,100642.91
2024-02-13T06:06:56.834Z,100647.91
2024-02-13T06:11:58.608Z,100643.06
2024-02-13T06:17:00.398Z,100637.25
2024-02-13T06:22:02.055Z,100646.91
2024-02-13T06:27:03.760Z,100644.75
2024-02-13T06:32:05.826Z,100644.00
2024-02-13T06:37:07.398Z,100658.72
2024-02-13T06:42:09.012Z,100645.16
2024-02-13T06:47:13.348Z,100657.63
2024-02-13T06:52:14.963Z,100652.69
2024-02-13T06:57:16.494Z,100663.63
2024-02-13T07:02:18.087Z,100666.69
2024-02-13T07:07:29.588Z,100670.69
2024-02-13T07:12:39.567Z,100687.41
2024-02-13T07:17:52.451Z,100686.19
2024-02-13T07:22:58.780Z,100696.94
2024-02-13T07:28:00.396Z,100716.78
2024-02-13T07:33:03.284Z,100709.22
2024-02-13T07:38:05.670Z,100721.41
2024-02-13T07:43:07.342Z,100724.03
2024-02-13T07:48:12.365Z,100730.38
2024-02-13T07:53:14.053Z,100732.69
2024-02-13T07:58:15.664Z,100737.50
2024-02-13T08:03:17.203Z,100737.75
2024-02-13T08:08:19.162Z,100738.13
2024-02-13T08:13:20.920Z,100736.25
2024-02-13T08:18:22.636Z,100731.97
2024-02-13T08:23:26.972Z,100746.47
2024-02-13T08:28:28.570Z,100753.59
2024-02-13T08:33:30.281Z,100755.75
2024-02-13T08:38:31.943Z,100754.38
2024-02-13T08:43:33.933Z,100761.38
2024-02-13T08:48:35.650Z,100768.66
2024-02-13T08:53:37.498Z,100769.00
2024-02-13T08:58:39.026Z,100772.50
2024-02-13T09:03:40.574Z,100775.41
2024-02-13T09:08:43.567Z,100775.81
2024-02-13T09:13:47.331Z,100788.56
2024-02-13T09:18:49.101Z,100783.09
2024-02-13T09:23:50.854Z,100768.25
2024-02-13T09:28:52.773Z,100780.28
2024-02-13T09:33:55.517Z,100785.38
2024-02-13T09:38:59.317Z,100797.28
2024-02-13T09:44:03.589Z,100798.53
2024-02-13T09:49:06.727Z,100810.34
2024-02-13T09:54:08.679Z,100819.13
2024-02-13T09:59:12.898Z,100807.94
2024-02-13T10:04:14.936Z,100813.13
2024-02-13T10:09:16.488Z,100832.59
2024-02-13T10:14:21.881Z,100832.34
2024-02-13T10:19:23.760Z,100827.19
2024-02-13T10:24:25.469Z,100850.03
2024-02-13T10:29:27.084Z,100852.34
2024-02-13T10:34:28.717Z,100855.66
2024-02-13T10:39:30.599Z,100861.41
2024-02-13T10:44:32.152Z,100857.03
2024-02-13T10:49:44.442Z,100865.25
2024-02-13T10:54:49.324Z,100875.25
2024-02-13T10:59:50.866Z,100884.34
2024-02-13T11:04:52.765Z,100882.25
2024-02-13T11:09:54.534Z,100876.06
2024-02-13T11:15:16.588Z,100885.53
2024-02-13T11:20:25.388Z,100887.56
2024-02-13T11:25:27.923Z,100882.88
2024-02-13T11:30:29.663Z,100890.22
2024-02-13T11:35:32.214Z,100896.69
2024-02-13T11:40:34.524Z,100900.19
2024-02-13T11:45:36.062Z,100905.91
2024-02-13T11:50:37.785Z,100906.41
2024-02-13T11:55:39.598Z,100915.47
2024-02-13T12:00:45.743Z,100905.00
2024-02-13T12:05:47.444Z,100910.16
2024-02-13T12:10:49.918Z,100912.16
2024-02-13T12:15:51.659Z,100909.91
2024-02-13T12:20:53.687Z,100915.38
2024-02-13T12:26:01.762Z,100914.81
2024-02-13T12:31:03.725Z,100920.13
2024-02-13T12:36:09.394Z,100919.22
2024-02-13T12:41:11.106Z,100918.66
2024-02-13T12:46:14.286Z,100917.94
2024-02-13T12:51:16.870Z,100912.69
2024-02-13T12:56:19.084Z,100915.84
2024-02-13T13:01:25.084Z,100912.13
2024-02-13T13:06:27.939Z,100919.41
2024-02-13T13:11:29.883Z,100915.94
2024-02-13T13:16:33.980Z,100926.09
2024-02-13T13:21:36.177Z,100914.97
2024-02-13T13:26:42.277Z,100919.38
2024-02-13T13:31:45.351Z,100911.16
2024-02-13T13:36:46.796Z,100922.53
2024-02-13T13:41:50.870Z,100917.47
2024-02-13T13:46:53.309Z,100922.56
2024-02-13T13:51:54.816Z,100914.75
2024-02-13T13:56:57.168Z,100920.56
2024-02-13T14:01:58.801Z,100922.47
2024-02-13T14:07:00.791Z,100918.06
2024-02-13T14:12:06.616Z,100924.16
2024-02-13T14:17:08.157Z,100927.97
2024-02-13T14:22:13.249Z,100924.34
2024-02-13T14:27:16.642Z,100929.66
2024-02-13T14:32:19.778Z,100930.16
2024-02-13T14:37:22.633Z,100932.63
2024-02-13T14:42:24.188Z,100929.44
2024-02-13T14:47:25.805Z,100928.06
2024-02-13T14:52:27.381Z,100924.63
2024-02-13T14:57:28.966Z,100927.63
2024-02-13T15:02:34.694Z,100928.97
2024-02-13T15:07:39.446Z,100936.22
2024-02-13T15:12:41.449Z,100930.13
2024-02-13T15:17:43.839Z,100934.81
2024-02-13T15:22:45.560Z,100929.66
2024-02-13T15:27:47.156Z,100939.66
2024-02-13T15:32:49.125Z,100942.72
2024-02-13T15:38:09.364Z,100953.91
2024-02-13T15:43:29.252Z,100946.78
2024-02-13T15:48:31.166Z,100956.56
2024-02-13T15:53:38.243Z,100954.47
2024-02-13T15:58:40.131Z,100949.88
2024-02-13T16:03:44.342Z,100952.31
2024-02-13T16:08:46.234Z,100956.31
2024-02-13T16:13:48.896Z,100942.25
2024-02-13T16:18:51.105Z,100946.69
2024-02-13T16:23:54.655Z,100949.03
2024-02-13T16:28:59.092Z,100957.16
2024-02-13T16:34:01.654Z,100958.91
2024-02-13T16:39:05.213Z,100969.59
2024-02-13T16:44:06.824Z,100974.53
2024-02-13T16:49:09.893Z,100964.41
2024-02-13T16:54:11.911Z,100978.53
2024-02-13T16:59:15.790Z,100986.81
2024-02-13T17:04:17.616Z,100985.41
2024-02-13T17:09:19.153Z,100981.47
2024-02-13T17:14:20.764Z,100986.03
2024-02-13T17:19:22.437Z,100992.22
2024-02-13T17:24:24.705Z,100986.38
2024-02-13T17:29:27.227Z,100990.44
2024-02-13T17:34:29.231Z,100978.66
2024-02-13T17:39:30.845Z,100985.53
2024-02-13T17:44:32.513Z,100993.63
2024-02-13T17:49:35.738Z,101002.91
2024-02-13T17:54:37.372Z,100998.16
2024-02-13T17:59:38.934Z,100996.41
2024-02-13T18:04:40.485Z,101005.00
2024-02-13T18:09:42.149Z,100994.88
2024-02-13T18:14:43.731Z,101002.25
2024-02-13T18:19:45.387Z,100996.53
2024-02-13T18:24:49.818Z,100994.31
2024-02-13T18:29:53.613Z,100986.53
2024-02-13T18:34:55.257Z,100981.47
2024-02-13T18:39:57.565Z,100982.75
2024-02-13T18:44:59.132Z,100970.69
2024-02-13T18:50:00.682Z,100981.75
2024-02-13T18:55:09.883Z,100973.75
2024-02-13T19:00:12.037Z,100978.97
2024-02-13T19:05:13.734Z,100994.16
2024-02-13T19:10:15.513Z,100986.41
2024-02-13T19:15:17.930Z,100976.78
2024-02-13T19:20:23.220Z,100979.44
2024-02-13T19:25:26.866Z,100973.53
2024-02-13T19:30:29.368Z,100975.78
2024-02-13T19:35:33.209Z,100981.97
2024-02-13T19:40:34.793Z,100976.56
2024-02-13T19:45:37.771Z,100985.06
2024-02-13T19:50:40.255Z,100980.06
2024-02-13T19:55:41.983Z,100982.44
2024-02-13T20:00:44.812Z,100978.22
2024-02-13T20:05:46.464Z,100960.44
2024-02-13T20:10:48.225Z,100969.28
2024-02-13T20:15:51.093Z,100975.47
2024-02-13T20:20:52.712Z,100975.78
2024-02-13T20:25:54.250Z,100972.56
2024-02-13T20:30:55.799Z,100978.72
2024-02-13T20:36:01.075Z,100984.53
2024-02-13T20:41:02.875Z,100988.81
2024-02-13T20:46:12.256Z,100982.63
2024-02-13T20:51:14.066Z,100989.44
2024-02-13T20:56:18.466Z,100988.34
2024-02-13T21:01:20.511Z,100984.63
2024-02-13T21:06:24.927Z,100984.94
2024-02-13T21:11:27.310Z,100988.28
2024-02-13T21:16:31.017Z,100986.03
2024-02-13T21:21:51.903Z,100973.88
2024-02-13T21:26:53.567Z,100982.81
2024-02-13T21:31:55.123Z,100984.34
2024-02-13T21:36:56.679Z,100972.56
2024-02-13T21:41:59.107Z,100972.94
2024-02-13T21:47:00.927Z,100982.16
2024-02-13T21:52:02.454Z,100970.97
2024-02-13T21:57:07.473Z,100968.56
2024-02-13T22:02:09.134Z,100969.75
2024-02-13T22:07:10.678Z,100967.88
2024-02-13T22:12:12.281Z,100957.13
2024-02-13T22:17:13.841Z,100953.16
2024-02-13T22:22:15.401Z,100957.84
2024-02-13T22:27:17.258Z,100955.94
2024-02-13T22:32:18.785Z,100956.38
2024-02-13T22:37:21.333Z,100946.53
2024-02-13T22:42:23.396Z,100942.69
2024-02-13T22:47:25.037Z,100946.00
2024-02-13T22:52:27.282Z,100929.16
2024-02-13T22:57:29.103Z,100928.25
2024-02-13T23:02:32.104Z,100932.03
2024-02-13T23:07:33.999Z,100926.69
2024-02-13T23:12:38.682Z,100926.69
2024-02-13T23:17:40.280Z,100922.44
2024-02-13T23:22:41.855Z,100926.53
2024-02-13T23:27:43.521Z,100920.00
2024-02-13T23:32:45.397Z,100912.00
2024-02-13T23:37:47.157Z,100914.44
2024-02-13T23:42:51.791Z,100908.28
2024-02-13T23:47:53.763Z,100903.72
2024-02-13T23:52:58.021Z,100898.53
2024-02-13T23:58:00.074Z,100894.03
